Time;durP1;ratioP1;P1;durP2;ratioP2;P2;SDS_P1;SDS_P2;PMS_P1;PMS_P2;Temp;Humidity;BMP_temperature;BMP_pressure;BME280_temperature;BME280_humidity;BME280_pressure;Samples;Min_cycle;Max_cycle;Signal;HPM_P1;HPM_P2
2021/03/02 00:01:48;;;;;;;25.47;16.37;;;;;;;;;;5019025;28;20212;-34
2021/03/02 00:04:34;;;;;;;23.00;16.10;;;;;;;;;;5018818;28;20206;-38
2021/03/02 00:07:20;;;;;;;25.37;16.27;;;;;;;;;;5018770;28;20585;-36
2021/03/02 00:10:09;;;;;;;25.77;17.00;;;;;;;;;;5018752;28;20206;-33
2021/03/02 00:12:56;;;;;;;26.77;16.70;;;;;;;;;;5018839;28;20341;-34
2021/03/02 00:15:42;;;;;;;28.43;17.10;;;;;;;;;;5018766;28;20276;-32
2021/03/02 00:18:28;;;;;;;27.00;16.40;;;;;;;;;;5019064;28;20198;-33
2021/03/02 00:21:17;;;;;;;27.73;17.80;;;;;;;;;;5018500;28;20198;-33
2021/03/02 00:24:03;;;;;;;24.60;16.80;;;;;;;;;;5018880;28;20202;-34
2021/03/02 00:26:53;;;;;;;25.27;16.27;;;;;;;;;;5017872;28;20226;-34
2021/03/02 00:29:43;;;;;;;30.10;17.30;;;;;;;;;;5018802;28;20369;-35
2021/03/02 00:32:28;;;;;;;25.30;16.90;;;;;;;;;;5018369;28;20312;-38
2021/03/02 00:35:15;;;;;;;24.97;16.67;;;;;;;;;;5018844;28;20300;-35
2021/03/02 00:38:01;;;;;;;22.57;16.70;;;;;;;;;;5018543;28;20221;-32
2021/03/02 00:40:46;;;;;;;34.20;19.63;;;;;;;;;;5018648;28;20464;-35
2021/03/02 00:43:33;;;;;;;24.70;16.20;;;;;;;;;;5018754;28;20206;-33
2021/03/02 00:46:24;;;;;;;25.03;15.30;;;;;;;;;;5018637;28;20641;-36
2021/03/02 00:49:10;;;;;;;27.03;16.93;;;;;;;;;;5018198;28;20197;-35
2021/03/02 00:51:55;;;;;;;24.77;15.83;;;;;;;;;;5018119;28;20317;-32
2021/03/02 00:54:41;;;;;;;28.00;17.07;;;;;;;;;;5018078;28;20303;-33
2021/03/02 00:57:27;;;;;;;26.43;16.37;;;;;;;;;;5018362;28;20194;-34
2021/03/02 01:00:13;;;;;;;24.93;15.73;;;;;;;;;;5018033;28;20480;-34
2021/03/02 01:02:59;;;;;;;22.40;15.03;;;;;;;;;;5017996;28;20202;-38
2021/03/02 01:05:45;;;;;;;30.37;17.27;;;;;;;;;;5017817;28;20303;-35
2021/03/02 01:08:31;;;;;;;24.07;15.40;;;;;;;;;;5017949;28;20252;-34
2021/03/02 01:11:16;;;;;;;24.83;16.57;;;;;;;;;;5018098;28;20674;-34
2021/03/02 01:14:05;;;;;;;20.67;14.33;;;;;;;;;;5017767;28;20210;-32
2021/03/02 01:16:51;;;;;;;23.10;15.23;;;;;;;;;;5017582;28;20308;-37
2021/03/02 01:19:38;;;;;;;21.47;14.60;;;;;;;;;;5017489;28;20288;-35
2021/03/02 01:22:23;;;;;;;24.87;16.10;;;;;;;;;;5017865;28;20197;-32
2021/03/02 01:25:12;;;;;;;25.10;15.37;;;;;;;;;;5017556;28;20261;-38
2021/03/02 01:28:01;;;;;;;22.40;14.77;;;;;;;;;;5017584;28;20317;-34
2021/03/02 01:30:47;;;;;;;24.33;15.93;;;;;;;;;;5017256;28;20198;-35
2021/03/02 01:33:33;;;;;;;24.93;14.80;;;;;;;;;;5017210;28;20605;-37
2021/03/02 01:36:19;;;;;;;21.27;14.73;;;;;;;;;;5017579;28;20197;-37
2021/03/02 01:39:08;;;;;;;19.40;14.30;;;;;;;;;;5017160;28;20647;-38
2021/03/02 01:41:54;;;;;;;20.20;14.43;;;;;;;;;;5017299;28;20206;-35
2021/03/02 01:44:39;;;;;;;20.83;14.53;;;;;;;;;;5017457;28;20212;-35
2021/03/02 01:47:27;;;;;;;22.50;14.97;;;;;;;;;;5016832;28;20632;-35
2021/03/02 01:50:13;;;;;;;21.97;14.67;;;;;;;;;;5017481;28;20202;-34
2021/03/02 01:52:59;;;;;;;25.13;14.47;;;;;;;;;;5017267;28;20197;-35
2021/03/02 01:55:45;;;;;;;19.50;13.17;;;;;;;;;;5017316;28;20237;-34
2021/03/02 01:58:30;;;;;;;20.23;13.77;;;;;;;;;;5016943;28;20360;-36
2021/03/02 02:01:17;;;;;;;21.57;14.30;;;;;;;;;;5017968;28;20471;-36
2021/03/02 02:04:07;;;;;;;22.10;14.40;;;;;;;;;;5017071;28;20256;-33
2021/03/02 02:06:55;;;;;;;20.33;14.13;;;;;;;;;;5016969;28;20218;-35
2021/03/02 02:09:47;;;;;;;21.03;13.67;;;;;;;;;;5017395;28;20494;-35
2021/03/02 02:12:36;;;;;;;21.07;14.00;;;;;;;;;;5017194;28;20331;-36
2021/03/02 02:15:24;;;;;;;22.13;13.83;;;;;;;;;;5017042;28;20352;-36
2021/03/02 02:18:12;;;;;;;21.17;14.00;;;;;;;;;;5017037;28;20352;-37
2021/03/02 02:21:02;;;;;;;24.37;14.53;;;;;;;;;;5016726;28;20502;-37
2021/03/02 02:23:54;;;;;;;22.77;13.67;;;;;;;;;;5016558;28;20197;-34
2021/03/02 02:26:53;;;;;;;21.43;14.20;;;;;;;;;;5016813;28;20385;-37
2021/03/02 02:29:39;;;;;;;22.47;14.07;;;;;;;;;;5017142;28;20564;-36
2021/03/02 02:32:26;;;;;;;22.93;14.20;;;;;;;;;;5017446;28;20523;-37
2021/03/02 02:35:15;;;;;;;21.10;13.60;;;;;;;;;;5017025;28;20212;-35
2021/03/02 02:38:01;;;;;;;21.23;14.50;;;;;;;;;;5016582;28;20201;-35
2021/03/02 02:40:48;;;;;;;21.77;14.13;;;;;;;;;;5016863;28;21312;-35
2021/03/02 02:43:34;;;;;;;20.90;14.47;;;;;;;;;;5016732;28;20218;-33
2021/03/02 02:46:21;;;;;;;24.60;15.57;;;;;;;;;;5016868;28;20689;-33
2021/03/02 02:49:08;;;;;;;23.10;15.30;;;;;;;;;;5017999;28;20229;-34
2021/03/02 02:51:54;;;;;;;22.80;13.93;;;;;;;;;;5020681;28;20539;-37
2021/03/02 02:54:39;;;;;;;21.40;15.80;;;;;;;;;;5020667;28;20304;-35
2021/03/02 02:57:26;;;;;;;24.00;14.40;;;;;;;;;;5020124;28;20249;-34
2021/03/02 03:00:14;;;;;;;21.00;14.80;;;;;;;;;;5020150;28;20204;-37
2021/03/02 03:03:12;;;;;;;22.80;14.77;;;;;;;;;;5020540;28;20292;-35
2021/03/02 03:06:07;;;;;;;25.50;14.30;;;;;;;;;;5020193;28;20690;-33
2021/03/02 03:09:01;;;;;;;22.30;15.27;;;;;;;;;;5020180;28;20262;-35
2021/03/02 03:11:56;;;;;;;26.10;15.07;;;;;;;;;;5020591;28;20229;-33
2021/03/02 03:15:07;;;;;;;24.83;15.37;;;;;;;;;;5020023;28;20222;-32
2021/03/02 03:17:54;;;;;;;23.37;14.33;;;;;;;;;;5020295;28;20288;-31
2021/03/02 03:20:41;;;;;;;25.93;15.70;;;;;;;;;;5020206;28;20291;-34
2021/03/02 03:23:28;;;;;;;27.20;16.03;;;;;;;;;;5020088;28;20655;-32
2021/03/02 03:26:14;;;;;;;23.37;15.20;;;;;;;;;;5019752;28;20221;-31
2021/03/02 03:29:01;;;;;;;23.57;15.00;;;;;;;;;;5019845;28;20198;-30
2021/03/02 03:31:46;;;;;;;26.87;16.80;;;;;;;;;;5019937;28;20205;-34
2021/03/02 03:34:33;;;;;;;33.97;18.90;;;;;;;;;;5019702;28;20269;-31
2021/03/02 03:37:19;;;;;;;23.80;15.23;;;;;;;;;;5019774;28;20264;-33
2021/03/02 03:40:06;;;;;;;24.47;15.63;;;;;;;;;;5021214;28;20251;-33
2021/03/02 03:42:51;;;;;;;26.33;16.03;;;;;;;;;;5019338;28;20205;-33
2021/03/02 03:45:37;;;;;;;24.07;15.70;;;;;;;;;;5019454;28;20197;-30
2021/03/02 03:48:23;;;;;;;24.50;15.70;;;;;;;;;;5019923;28;20352;-31
2021/03/02 03:51:11;;;;;;;26.37;16.67;;;;;;;;;;5019269;28;20214;-31
2021/03/02 03:53:57;;;;;;;27.07;15.70;;;;;;;;;;5019559;28;20489;-33
2021/03/02 03:56:43;;;;;;;22.20;14.97;;;;;;;;;;5019395;28;20198;-35
2021/03/02 03:59:29;;;;;;;28.17;16.67;;;;;;;;;;5019416;28;20265;-32
2021/03/02 04:02:15;;;;;;;26.20;16.93;;;;;;;;;;5019477;28;20485;-30
2021/03/02 04:05:05;;;;;;;24.63;15.77;;;;;;;;;;5019269;28;20205;-31
2021/03/02 04:07:52;;;;;;;25.10;16.70;;;;;;;;;;5019406;28;20299;-32
2021/03/02 04:10:37;;;;;;;28.37;16.60;;;;;;;;;;5019416;28;20361;-34
2021/03/02 04:13:23;;;;;;;24.60;16.53;;;;;;;;;;5019040;28;20241;-33
2021/03/02 04:16:09;;;;;;;27.23;16.67;;;;;;;;;;5019058;28;20600;-33
2021/03/02 04:18:56;;;;;;;25.27;16.20;;;;;;;;;;5018971;28;20483;-33
2021/03/02 04:21:42;;;;;;;27.87;16.80;;;;;;;;;;5019112;28;20256;-32
2021/03/02 04:24:28;;;;;;;25.17;16.37;;;;;;;;;;5018934;28;20205;-31
2021/03/02 04:27:14;;;;;;;27.73;16.80;;;;;;;;;;5018614;28;20253;-33
2021/03/02 04:29:59;;;;;;;24.53;16.60;;;;;;;;;;5018673;28;20613;-36
2021/03/02 04:32:44;;;;;;;27.83;17.17;;;;;;;;;;5018926;28;20202;-32
2021/03/02 04:35:30;;;;;;;27.20;18.00;;;;;;;;;;5018577;28;20643;-31
2021/03/02 04:38:16;;;;;;;27.80;16.60;;;;;;;;;;5018250;28;20245;-34
2021/03/02 04:41:02;;;;;;;32.50;18.80;;;;;;;;;;5018746;28;20482;-35
2021/03/02 04:43:47;;;;;;;28.23;16.90;;;;;;;;;;5018698;28;20206;-35
2021/03/02 04:46:33;;;;;;;28.30;16.27;;;;;;;;;;5017794;28;20237;-30
2021/03/02 04:49:19;;;;;;;27.73;16.30;;;;;;;;;;5018018;28;20210;-31
2021/03/02 04:52:05;;;;;;;24.87;17.00;;;;;;;;;;5018365;28;20608;-34
2021/03/02 04:54:50;;;;;;;29.53;17.63;;;;;;;;;;5018172;28;20205;-32
2021/03/02 04:57:37;;;;;;;27.10;16.90;;;;;;;;;;5018363;28;20276;-37
2021/03/02 05:00:23;;;;;;;28.07;16.67;;;;;;;;;;5018374;28;20606;-31
2021/03/02 05:03:09;;;;;;;26.53;16.40;;;;;;;;;;5017843;28;20201;-34
2021/03/02 05:05:57;;;;;;;31.27;16.87;;;;;;;;;;5018294;28;20492;-32
2021/03/02 05:08:42;;;;;;;24.27;15.90;;;;;;;;;;5017844;28;20205;-32
2021/03/02 05:11:28;;;;;;;27.30;16.47;;;;;;;;;;5017606;28;20355;-31
2021/03/02 05:14:14;;;;;;;28.57;17.27;;;;;;;;;;5017154;28;20202;-30
2021/03/02 05:17:00;;;;;;;30.13;17.20;;;;;;;;;;5016911;28;20317;-31
2021/03/02 05:19:48;;;;;;;28.50;17.60;;;;;;;;;;5017842;28;20221;-34
2021/03/02 05:22:33;;;;;;;29.50;17.80;;;;;;;;;;5017434;28;20218;-31
2021/03/02 05:25:19;;;;;;;30.07;17.33;;;;;;;;;;5017470;28;20483;-35
2021/03/02 05:28:05;;;;;;;31.97;19.00;;;;;;;;;;5017439;28;20376;-32
2021/03/02 05:30:52;;;;;;;30.27;17.90;;;;;;;;;;5017445;28;20249;-33
2021/03/02 05:33:38;;;;;;;31.27;18.60;;;;;;;;;;5017192;28;20319;-33
2021/03/02 05:36:24;;;;;;;34.30;21.07;;;;;;;;;;5017590;28;20201;-31
2021/03/02 05:39:10;;;;;;;32.37;19.53;;;;;;;;;;5017188;28;20256;-33
2021/03/02 05:41:55;;;;;;;31.53;19.33;;;;;;;;;;5016905;28;20233;-33
2021/03/02 05:44:41;;;;;;;29.63;19.47;;;;;;;;;;5017146;28;20607;-33
2021/03/02 05:47:27;;;;;;;32.03;17.27;;;;;;;;;;5016903;28;20245;-34
2021/03/02 05:50:16;;;;;;;28.53;17.73;;;;;;;;;;5016955;28;20205;-35
2021/03/02 05:53:01;;;;;;;30.57;18.23;;;;;;;;;;5016752;28;20292;-32
2021/03/02 05:55:49;;;;;;;24.93;16.07;;;;;;;;;;5017170;28;20209;-38
2021/03/02 05:58:35;;;;;;;29.67;15.97;;;;;;;;;;5016929;28;20205;-40
2021/03/02 06:01:21;;;;;;;24.13;15.30;;;;;;;;;;5016835;28;20197;-38
2021/03/02 06:04:14;;;;;;;26.10;14.70;;;;;;;;;;5017439;28;20198;-40
2021/03/02 06:07:00;;;;;;;29.20;15.70;;;;;;;;;;5016856;28;20224;-36
2021/03/02 06:09:48;;;;;;;24.37;14.03;;;;;;;;;;5016686;28;20205;-34
2021/03/02 06:12:49;;;;;;;24.90;15.20;;;;;;;;;;5016510;28;20527;-39
2021/03/02 06:15:52;;;;;;;25.83;15.63;;;;;;;;;;5016732;28;20495;-39
2021/03/02 06:18:46;;;;;;;24.77;15.13;;;;;;;;;;5016453;28;20295;-40
2021/03/02 06:21:35;;;;;;;24.67;15.23;;;;;;;;;;5016419;28;20321;-37
2021/03/02 06:24:33;;;;;;;28.57;15.83;;;;;;;;;;5018011;28;20205;-38
2021/03/02 06:27:19;;;;;;;22.60;15.03;;;;;;;;;;5020598;28;20611;-35
2021/03/02 06:30:11;;;;;;;24.80;14.90;;;;;;;;;;5020291;28;20201;-37
2021/03/02 06:32:57;;;;;;;25.67;14.27;;;;;;;;;;5003680;28;20265;-38
2021/03/02 06:35:44;;;;;;;24.57;14.60;;;;;;;;;;5001188;28;20213;-39
2021/03/02 06:38:35;;;;;;;23.37;15.37;;;;;;;;;;5000637;28;20230;-35
2021/03/02 06:41:22;;;;;;;23.60;15.03;;;;;;;;;;5000724;28;20322;-40
2021/03/02 06:44:13;;;;;;;25.03;14.30;;;;;;;;;;5003663;28;20340;-42
2021/03/02 06:47:03;;;;;;;22.23;14.10;;;;;;;;;;5020932;28;20212;-39
2021/03/02 06:49:50;;;;;;;22.97;14.57;;;;;;;;;;5020873;28;20304;-35
2021/03/02 06:52:36;;;;;;;22.07;14.10;;;;;;;;;;5020170;28;20299;-37
2021/03/02 06:55:26;;;;;;;20.93;14.00;;;;;;;;;;5019906;28;20218;-39
2021/03/02 06:58:16;;;;;;;23.70;13.33;;;;;;;;;;5019194;28;20230;-37
2021/03/02 07:01:02;;;;;;;20.13;12.97;;;;;;;;;;5020349;28;20203;-38
2021/03/02 07:03:50;;;;;;;19.53;12.80;;;;;;;;;;5019716;28;20208;-36
2021/03/02 07:06:39;;;;;;;19.90;13.27;;;;;;;;;;5019758;28;20551;-38
2021/03/02 07:09:28;;;;;;;20.30;12.70;;;;;;;;;;5019787;28;20202;-35
2021/03/02 07:12:15;;;;;;;16.33;12.10;;;;;;;;;;5024556;28;20232;-37
2021/03/02 07:15:01;;;;;;;17.83;12.67;;;;;;;;;;5039489;28;20622;-35
2021/03/02 07:17:55;;;;;;;21.43;14.50;;;;;;;;;;5039484;28;20233;-36
2021/03/02 07:20:46;;;;;;;16.07;11.53;;;;;;;;;;5039564;28;20205;-41
2021/03/02 07:23:37;;;;;;;17.17;11.10;;;;;;;;;;5039413;28;20216;-39
2021/03/02 07:26:29;;;;;;;16.60;10.77;;;;;;;;;;5039412;28;20197;-40
2021/03/02 07:29:18;;;;;;;17.57;12.60;;;;;;;;;;5039110;28;20209;-40
2021/03/02 07:32:05;;;;;;;15.60;10.80;;;;;;;;;;5039097;28;20263;-38
2021/03/02 07:34:51;;;;;;;18.03;11.57;;;;;;;;;;5038627;28;20198;-38
2021/03/02 07:37:36;;;;;;;16.37;12.27;;;;;;;;;;5039127;28;20550;-35
2021/03/02 07:44:23;;;;;;;16.40;11.17;;;;;;;;;;5019115;28;20237;-37
2021/03/02 07:47:08;;;;;;;15.70;11.53;;;;;;;;;;5018717;28;20198;-38
2021/03/02 07:50:16;;;;;;;17.33;12.07;;;;;;;;;;5019393;28;20208;-40
2021/03/02 07:53:21;;;;;;;18.43;12.07;;;;;;;;;;5018823;28;20210;-36
2021/03/02 07:56:20;;;;;;;15.80;11.40;;;;;;;;;;5018991;28;20265;-38
2021/03/02 07:59:21;;;;;;;18.07;11.60;;;;;;;;;;5018823;28;20611;-40
2021/03/02 08:02:15;;;;;;;15.30;11.03;;;;;;;;;;5018099;28;20416;-36
2021/03/02 08:05:31;;;;;;;15.70;11.43;;;;;;;;;;5018682;28;20202;-36
2021/03/02 08:08:32;;;;;;;14.13;10.90;;;;;;;;;;5018191;28;20298;-38
2021/03/02 08:11:29;;;;;;;15.33;10.67;;;;;;;;;;5017858;28;20337;-40
2021/03/02 08:14:35;;;;;;;16.80;10.93;;;;;;;;;;5018135;28;20468;-41
2021/03/02 08:17:26;;;;;;;14.67;10.80;;;;;;;;;;5018063;28;20652;-40
2021/03/02 08:20:13;;;;;;;13.73;10.60;;;;;;;;;;5017537;28;20206;-39
2021/03/02 08:23:02;;;;;;;13.93;10.13;;;;;;;;;;5018113;28;20195;-39
2021/03/02 08:26:15;;;;;;;16.97;11.10;;;;;;;;;;5025713;28;20205;-43
2021/03/02 08:29:15;;;;;;;14.70;10.33;;;;;;;;;;4998615;28;20201;-39
2021/03/02 08:32:02;;;;;;;13.70;9.80;;;;;;;;;;5014727;28;20293;-40
2021/03/02 08:34:52;;;;;;;14.70;10.47;;;;;;;;;;5017759;28;20293;-37
2021/03/02 08:37:42;;;;;;;15.57;9.80;;;;;;;;;;5017083;28;20225;-42
2021/03/02 08:40:42;;;;;;;12.03;10.07;;;;;;;;;;5017758;28;20539;-39
2021/03/02 08:43:35;;;;;;;13.10;9.90;;;;;;;;;;5017552;28;20202;-39
2021/03/02 08:46:25;;;;;;;13.30;10.30;;;;;;;;;;4996719;28;20199;-39
2021/03/02 08:49:12;;;;;;;11.63;9.73;;;;;;;;;;4997530;28;20203;-36
2021/03/02 08:52:00;;;;;;;12.27;9.30;;;;;;;;;;4997564;28;20203;-37
2021/03/02 08:54:47;;;;;;;12.17;9.03;;;;;;;;;;4997885;28;20202;-39
2021/03/02 08:57:42;;;;;;;13.07;9.70;;;;;;;;;;4997346;28;20265;-36
2021/03/02 09:00:29;;;;;;;11.63;8.90;;;;;;;;;;4997261;28;20291;-39
2021/03/02 09:03:15;;;;;;;13.90;9.53;;;;;;;;;;4997712;28;20660;-38
2021/03/02 09:06:21;;;;;;;14.00;9.27;;;;;;;;;;4997407;28;20202;-36
2021/03/02 09:09:09;;;;;;;11.17;9.63;;;;;;;;;;4997109;28;20202;-38
2021/03/02 09:11:58;;;;;;;13.03;8.90;;;;;;;;;;4997173;28;20636;-33
2021/03/02 09:14:44;;;;;;;10.80;8.70;;;;;;;;;;4996530;28;20455;-40
2021/03/02 09:17:30;;;;;;;11.40;8.90;;;;;;;;;;4996870;28;20269;-38
2021/03/02 09:20:16;;;;;;;11.53;9.30;;;;;;;;;;4997096;28;20230;-36
2021/03/02 09:23:04;;;;;;;11.70;9.43;;;;;;;;;;4996658;28;20260;-38
2021/03/02 09:25:52;;;;;;;12.53;8.83;;;;;;;;;;4997423;28;20312;-38
2021/03/02 09:28:38;;;;;;;9.73;8.53;;;;;;;;;;4996810;28;20597;-36
2021/03/02 09:31:24;;;;;;;12.50;8.47;;;;;;;;;;4997466;28;20474;-40
2021/03/02 09:34:10;;;;;;;10.63;8.30;;;;;;;;;;4997092;28;20200;-35
2021/03/02 09:37:04;;;;;;;9.67;8.13;;;;;;;;;;4997912;28;20224;-34
2021/03/02 09:39:56;;;;;;;11.20;8.37;;;;;;;;;;4996939;28;20618;-36
2021/03/02 09:42:43;;;;;;;10.53;8.13;;;;;;;;;;4997234;28;20294;-38
2021/03/02 09:45:31;;;;;;;11.53;9.17;;;;;;;;;;4997132;28;20479;-39
2021/03/02 09:48:18;;;;;;;10.50;7.80;;;;;;;;;;4996749;28;20194;-36
2021/03/02 09:51:05;;;;;;;9.80;8.23;;;;;;;;;;4997174;28;20347;-35
2021/03/02 09:53:51;;;;;;;9.23;8.00;;;;;;;;;;4996829;28;20222;-40
2021/03/02 09:56:40;;;;;;;10.53;8.43;;;;;;;;;;4996478;28;20198;-36
2021/03/02 09:59:29;;;;;;;11.00;7.83;;;;;;;;;;4997387;28;20199;-38
2021/03/02 10:02:15;;;;;;;12.40;8.30;;;;;;;;;;4997343;28;20558;-38
2021/03/02 10:05:05;;;;;;;9.63;7.77;;;;;;;;;;4996298;28;20353;-41
2021/03/02 10:07:51;;;;;;;11.60;8.53;;;;;;;;;;4996585;28;20221;-38
2021/03/02 10:10:40;;;;;;;10.67;8.10;;;;;;;;;;4996407;28;20257;-38
2021/03/02 10:13:33;;;;;;;11.83;7.83;;;;;;;;;;5004954;28;20252;-35
2021/03/02 10:16:26;;;;;;;9.00;7.23;;;;;;;;;;5014481;28;20581;-40
2021/03/02 10:19:16;;;;;;;10.07;6.87;;;;;;;;;;5016960;28;20206;-36
2021/03/02 10:22:12;;;;;;;8.30;7.33;;;;;;;;;;5015976;28;20253;-40
2021/03/02 10:25:07;;;;;;;9.93;8.47;;;;;;;;;;5016041;28;20334;-41
2021/03/02 10:27:56;;;;;;;10.53;8.27;;;;;;;;;;5016418;28;20202;-39
2021/03/02 10:30:42;;;;;;;10.37;8.47;;;;;;;;;;5016089;28;20738;-39
2021/03/02 10:33:32;;;;;;;10.77;8.73;;;;;;;;;;5015801;28;20202;-41
2021/03/02 10:36:20;;;;;;;11.10;8.90;;;;;;;;;;5006663;28;20198;-37
2021/03/02 10:39:06;;;;;;;9.27;8.13;;;;;;;;;;5016281;28;20376;-37
2021/03/02 10:41:52;;;;;;;11.83;8.13;;;;;;;;;;5000923;28;20205;-35
2021/03/02 10:44:38;;;;;;;11.87;8.53;;;;;;;;;;5016129;28;20197;-36
2021/03/02 10:47:25;;;;;;;9.47;8.30;;;;;;;;;;5016187;28;20348;-35
2021/03/02 10:50:28;;;;;;;11.30;8.53;;;;;;;;;;5015620;28;20204;-38
2021/03/02 10:53:14;;;;;;;10.13;8.47;;;;;;;;;;5016333;28;20256;-40
2021/03/02 10:56:01;;;;;;;12.63;9.30;;;;;;;;;;5015957;28;20201;-38
2021/03/02 10:58:47;;;;;;;9.80;8.60;;;;;;;;;;5015950;28;20822;-36
2021/03/02 11:01:39;;;;;;;12.07;8.87;;;;;;;;;;5015710;28;20635;-35
2021/03/02 11:04:28;;;;;;;11.07;8.33;;;;;;;;;;5016022;28;20503;-36
2021/03/02 11:07:18;;;;;;;10.37;8.60;;;;;;;;;;5015783;28;20628;-33
2021/03/02 11:10:07;;;;;;;10.57;9.40;;;;;;;;;;5017964;28;20289;-35
2021/03/02 11:12:53;;;;;;;10.47;8.67;;;;;;;;;;5019092;28;20554;-37
2021/03/02 11:15:40;;;;;;;10.07;7.70;;;;;;;;;;5019717;28;20278;-39
2021/03/02 11:18:25;;;;;;;11.43;8.97;;;;;;;;;;5019528;28;20535;-35
2021/03/02 11:21:12;;;;;;;10.70;8.47;;;;;;;;;;5019425;28;20590;-37
2021/03/02 11:23:59;;;;;;;12.00;8.57;;;;;;;;;;5019242;28;20353;-35
2021/03/02 11:26:48;;;;;;;11.40;9.90;;;;;;;;;;5000119;28;20257;-37
2021/03/02 11:29:36;;;;;;;13.90;9.77;;;;;;;;;;4999727;28;20194;-36
2021/03/02 11:32:22;;;;;;;12.33;9.70;;;;;;;;;;4999456;28;20208;-38
2021/03/02 11:35:12;;;;;;;10.37;8.90;;;;;;;;;;5009446;28;20209;-38
2021/03/02 11:37:59;;;;;;;12.73;9.40;;;;;;;;;;5019489;28;20709;-36
2021/03/02 11:40:47;;;;;;;11.67;8.93;;;;;;;;;;5018785;28;20206;-39
2021/03/02 11:43:34;;;;;;;11.67;8.80;;;;;;;;;;5014880;28;20209;-37
2021/03/02 11:46:29;;;;;;;11.37;8.90;;;;;;;;;;5019185;28;20201;-40
2021/03/02 11:49:18;;;;;;;10.67;8.13;;;;;;;;;;5019064;28;20623;-39
2021/03/02 11:52:04;;;;;;;11.70;8.00;;;;;;;;;;5018210;28;20227;-39
2021/03/02 11:54:50;;;;;;;11.37;8.87;;;;;;;;;;4998712;28;20204;-35
2021/03/02 11:57:38;;;;;;;12.47;8.43;;;;;;;;;;4998313;28;20534;-37
2021/03/02 12:00:25;;;;;;;12.67;9.00;;;;;;;;;;5007267;28;20210;-38
2021/03/02 12:03:13;;;;;;;8.83;7.87;;;;;;;;;;5017959;28;20490;-35
2021/03/02 12:05:59;;;;;;;10.30;7.27;;;;;;;;;;5018076;28;20600;-36
2021/03/02 12:08:48;;;;;;;8.63;6.93;;;;;;;;;;5017926;28;20715;-38
2021/03/02 12:11:37;;;;;;;9.77;7.60;;;;;;;;;;5018004;28;20252;-39
2021/03/02 12:14:24;;;;;;;10.30;7.20;;;;;;;;;;5012625;28;20316;-36
2021/03/02 12:17:14;;;;;;;9.17;7.53;;;;;;;;;;5018377;28;20205;-38
2021/03/02 12:20:00;;;;;;;8.37;6.93;;;;;;;;;;5010382;28;20202;-37
2021/03/02 12:22:46;;;;;;;12.07;7.33;;;;;;;;;;5017061;28;20201;-38
2021/03/02 12:25:32;;;;;;;6.67;5.87;;;;;;;;;;5018443;28;20352;-38
2021/03/02 12:28:21;;;;;;;6.97;6.00;;;;;;;;;;5018411;28;20229;-38
2021/03/02 12:31:09;;;;;;;10.27;7.57;;;;;;;;;;5018678;28;20615;-36
2021/03/02 12:33:56;;;;;;;9.27;6.57;;;;;;;;;;5017711;28;20489;-39
2021/03/02 12:36:42;;;;;;;10.70;6.53;;;;;;;;;;5018059;28;20601;-39
2021/03/02 12:39:28;;;;;;;8.73;7.07;;;;;;;;;;5017483;28;20510;-38
2021/03/02 12:42:14;;;;;;;11.07;6.40;;;;;;;;;;5017754;28;20268;-37
2021/03/02 12:45:00;;;;;;;8.33;6.63;;;;;;;;;;5017379;28;20214;-36
2021/03/02 12:47:50;;;;;;;9.73;7.10;;;;;;;;;;5017457;28;20555;-34
2021/03/02 12:50:36;;;;;;;11.83;7.60;;;;;;;;;;5017528;28;20205;-35
2021/03/02 12:53:23;;;;;;;8.20;6.57;;;;;;;;;;5017941;28;20209;-36
2021/03/02 12:56:10;;;;;;;9.40;7.80;;;;;;;;;;5017560;28;20202;-35
2021/03/02 12:58:59;;;;;;;11.50;7.67;;;;;;;;;;5017370;28;20276;-37
2021/03/02 13:01:48;;;;;;;10.80;7.93;;;;;;;;;;5017479;28;20284;-35
2021/03/02 13:04:36;;;;;;;8.40;6.87;;;;;;;;;;5017502;28;20221;-36
2021/03/02 13:07:22;;;;;;;9.10;7.37;;;;;;;;;;5016680;28;20205;-34
2021/03/02 13:10:09;;;;;;;8.90;6.37;;;;;;;;;;5016929;28;20307;-33
2021/03/02 13:12:58;;;;;;;14.20;7.33;;;;;;;;;;5017202;28;20601;-37
2021/03/02 13:15:44;;;;;;;8.37;6.80;;;;;;;;;;5017435;28;20206;-32
2021/03/02 13:18:30;;;;;;;8.80;6.97;;;;;;;;;;5016434;28;20226;-37
2021/03/02 13:21:17;;;;;;;10.23;7.53;;;;;;;;;;5017332;28;20273;-38
2021/03/02 13:24:05;;;;;;;13.17;8.43;;;;;;;;;;5015130;28;20218;-37
2021/03/02 13:26:53;;;;;;;7.90;6.93;;;;;;;;;;5015679;28;20208;-37
2021/03/02 13:29:41;;;;;;;9.83;6.93;;;;;;;;;;5016842;28;20208;-35
2021/03/02 13:32:31;;;;;;;8.03;6.63;;;;;;;;;;5016515;28;20195;-36
2021/03/02 13:35:19;;;;;;;9.77;6.97;;;;;;;;;;5016840;28;20202;-33
2021/03/02 13:38:15;;;;;;;8.33;6.57;;;;;;;;;;4997051;28;20310;-34
2021/03/02 13:41:16;;;;;;;9.13;7.03;;;;;;;;;;4997388;28;20268;-39
2021/03/02 13:44:06;;;;;;;11.37;7.50;;;;;;;;;;4996587;28;20209;-35
2021/03/02 13:46:55;;;;;;;8.50;7.03;;;;;;;;;;4996637;28;20214;-37
2021/03/02 13:49:58;;;;;;;8.47;6.87;;;;;;;;;;4996262;28;20269;-35
2021/03/02 13:52:47;;;;;;;8.27;6.53;;;;;;;;;;4996818;28;20205;-34
2021/03/02 13:55:34;;;;;;;11.50;6.83;;;;;;;;;;4996722;28;20206;-36
2021/03/02 13:58:21;;;;;;;9.07;6.50;;;;;;;;;;4995659;28;20203;-36
2021/03/02 14:01:07;;;;;;;9.47;6.83;;;;;;;;;;4994961;28;20617;-33
2021/03/02 14:03:53;;;;;;;8.47;6.40;;;;;;;;;;4995755;28;20198;-34
2021/03/02 14:06:40;;;;;;;7.57;6.77;;;;;;;;;;5002777;28;20312;-34
2021/03/02 14:09:26;;;;;;;9.00;6.37;;;;;;;;;;5015824;28;20320;-38
2021/03/02 14:12:13;;;;;;;7.13;6.40;;;;;;;;;;5015405;28;20239;-36
2021/03/02 14:15:00;;;;;;;7.17;5.73;;;;;;;;;;5014632;28;20201;-36
2021/03/02 14:17:50;;;;;;;7.10;6.37;;;;;;;;;;5014883;28;20193;-37
2021/03/02 14:20:36;;;;;;;7.80;6.67;;;;;;;;;;5015499;28;20381;-37
2021/03/02 14:23:23;;;;;;;11.77;7.43;;;;;;;;;;5015269;28;20606;-38
2021/03/02 14:26:09;;;;;;;8.67;6.50;;;;;;;;;;5014930;28;20217;-35
2021/03/02 14:28:56;;;;;;;8.87;6.27;;;;;;;;;;5015702;28;20376;-35
2021/03/02 14:31:44;;;;;;;8.63;6.23;;;;;;;;;;5014819;28;20418;-35
2021/03/02 14:34:32;;;;;;;6.90;6.20;;;;;;;;;;5015287;28;20331;-39
2021/03/02 14:37:18;;;;;;;7.57;6.03;;;;;;;;;;5015832;28;20272;-39
2021/03/02 14:40:05;;;;;;;7.60;6.13;;;;;;;;;;5016283;28;20626;-36
2021/03/02 14:42:56;;;;;;;8.03;5.77;;;;;;;;;;5015578;28;20205;-40
2021/03/02 14:45:44;;;;;;;8.60;5.87;;;;;;;;;;5018805;28;20199;-38
2021/03/02 14:48:37;;;;;;;9.47;6.87;;;;;;;;;;5019298;28;20247;-35
2021/03/02 14:51:23;;;;;;;7.87;6.43;;;;;;;;;;5020034;28;20478;-36
2021/03/02 14:54:15;;;;;;;8.77;6.50;;;;;;;;;;5019824;28;20350;-36
2021/03/02 14:57:03;;;;;;;8.33;5.67;;;;;;;;;;5020054;28;20201;-37
2021/03/02 14:59:49;;;;;;;10.60;6.77;;;;;;;;;;5020508;28;20275;-35
2021/03/02 15:02:42;;;;;;;9.90;5.97;;;;;;;;;;5019415;28;20279;-32
2021/03/02 15:05:29;;;;;;;8.43;6.90;;;;;;;;;;5019931;28;20202;-39
2021/03/02 15:08:15;;;;;;;10.90;6.53;;;;;;;;;;5019567;28;20328;-36
2021/03/02 15:11:02;;;;;;;7.87;5.67;;;;;;;;;;5019357;28;20205;-37
2021/03/02 15:13:49;;;;;;;8.77;6.60;;;;;;;;;;5019488;28;20213;-33
2021/03/02 15:16:36;;;;;;;6.93;5.23;;;;;;;;;;5020006;28;20233;-39
2021/03/02 15:19:23;;;;;;;9.30;6.00;;;;;;;;;;5019935;28;20289;-36
2021/03/02 15:22:12;;;;;;;6.70;5.80;;;;;;;;;;5019367;28;20605;-35
2021/03/02 15:24:58;;;;;;;7.53;5.73;;;;;;;;;;5019721;28;20259;-38
2021/03/02 15:27:49;;;;;;;7.33;5.73;;;;;;;;;;5019036;28;20465;-34
2021/03/02 15:30:35;;;;;;;7.83;6.30;;;;;;;;;;5018179;28;20203;-39
2021/03/02 15:33:25;;;;;;;10.77;7.10;;;;;;;;;;5019149;28;20202;-35
2021/03/02 15:36:15;;;;;;;6.80;5.93;;;;;;;;;;5018993;28;20554;-35
2021/03/02 15:39:01;;;;;;;7.27;6.07;;;;;;;;;;5017547;28;20338;-37
2021/03/02 15:41:47;;;;;;;9.67;5.87;;;;;;;;;;5019304;28;20262;-35
2021/03/02 15:44:33;;;;;;;6.67;5.43;;;;;;;;;;5019309;28;20598;-36
2021/03/02 15:47:20;;;;;;;8.83;6.03;;;;;;;;;;5018737;28;20295;-33
2021/03/02 15:50:07;;;;;;;6.93;5.70;;;;;;;;;;5018366;28;20210;-34
2021/03/02 15:53:00;;;;;;;7.20;6.30;;;;;;;;;;5018637;28;20199;-35
2021/03/02 15:55:47;;;;;;;8.10;6.10;;;;;;;;;;5018533;28;20202;-34
2021/03/02 15:58:35;;;;;;;7.20;5.40;;;;;;;;;;4999182;28;20352;-38
2021/03/02 16:01:22;;;;;;;6.87;5.60;;;;;;;;;;4998539;28;20196;-37
2021/03/02 16:04:16;;;;;;;8.50;6.10;;;;;;;;;;4998660;28;20230;-37
2021/03/02 16:07:03;;;;;;;7.80;6.37;;;;;;;;;;5002820;28;20616;-38
2021/03/02 16:09:56;;;;;;;8.63;6.53;;;;;;;;;;5010801;28;20238;-38
2021/03/02 16:12:44;;;;;;;7.27;5.80;;;;;;;;;;5018593;28;20234;-39
2021/03/02 16:15:31;;;;;;;8.70;5.30;;;;;;;;;;5016327;28;20227;-37
2021/03/02 16:18:21;;;;;;;7.53;5.37;;;;;;;;;;5018676;28;20201;-35
2021/03/02 16:21:13;;;;;;;8.70;6.63;;;;;;;;;;5018555;28;20214;-39
2021/03/02 16:24:02;;;;;;;11.60;6.13;;;;;;;;;;5018276;28;20477;-38
2021/03/02 16:26:48;;;;;;;10.43;6.07;;;;;;;;;;5017811;28;20613;-39
2021/03/02 16:29:35;;;;;;;8.50;5.97;;;;;;;;;;5017518;28;20323;-39
2021/03/02 16:32:21;;;;;;;7.23;5.33;;;;;;;;;;5015422;28;20797;-35
2021/03/02 16:35:08;;;;;;;7.07;5.50;;;;;;;;;;4998750;28;20206;-39